Time;durP1;ratioP1;P1;durP2;ratioP2;P2;SDS_P1;SDS_P2;PMS_P1;PMS_P2;Temp;Humidity;BMP_temperature;BMP_pressure;BME280_temperature;BME280_humidity;BME280_pressure;Samples;Min_cycle;Max_cycle;Signal;HPM_P1;HPM_P2
2023/06/24 00:01:25;;;;;;;8.52;7.47;;;18.10;99.90;;;;;;5067281;28;20041;-54
2023/06/24 00:03:52;;;;;;;8.23;7.07;;;17.90;99.90;;;;;;5068966;28;20601;-54
2023/06/24 00:06:19;;;;;;;8.55;7.43;;;17.90;99.90;;;;;;5064989;28;20040;-54
2023/06/24 00:08:45;;;;;;;8.38;7.25;;;17.90;99.90;;;;;;5071294;28;20115;-54
2023/06/24 00:11:12;;;;;;;12.13;7.15;;;17.90;99.90;;;;;;5070849;28;20356;-54
2023/06/24 00:13:38;;;;;;;7.75;7.05;;;17.90;99.90;;;;;;5063451;28;20052;-53
2023/06/24 00:16:06;;;;;;;8.10;7.22;;;18.00;99.90;;;;;;5058400;28;20120;-54
2023/06/24 00:18:32;;;;;;;7.95;7.15;;;18.00;99.90;;;;;;5068994;28;20044;-53
2023/06/24 00:20:57;;;;;;;8.25;7.43;;;18.00;99.90;;;;;;5069379;28;20039;-54
2023/06/24 00:23:24;;;;;;;8.98;7.07;;;18.00;99.90;;;;;;5062516;28;20368;-54
2023/06/24 00:25:50;;;;;;;9.38;7.40;;;17.90;99.90;;;;;;5060326;28;20052;-54
2023/06/24 00:28:16;;;;;;;7.70;6.95;;;17.90;99.90;;;;;;5065898;28;20489;-54
2023/06/24 00:30:42;;;;;;;8.57;7.30;;;18.00;99.90;;;;;;5060200;28;20092;-54
2023/06/24 00:33:10;;;;;;;8.82;6.88;;;17.90;99.90;;;;;;5026356;28;1048581;-54
2023/06/24 00:35:37;;;;;;;8.93;6.75;;;17.90;99.90;;;;;;5071286;28;20038;-54
2023/06/24 00:38:03;;;;;;;7.55;6.70;;;17.80;99.90;;;;;;5060410;28;20029;-54
2023/06/24 00:40:29;;;;;;;7.40;6.65;;;17.80;99.90;;;;;;5070405;28;20048;-55
2023/06/24 00:42:55;;;;;;;11.23;6.85;;;17.80;99.90;;;;;;5064937;28;20056;-55
2023/06/24 00:45:22;;;;;;;7.95;6.55;;;17.80;99.90;;;;;;5067568;28;20115;-54
2023/06/24 00:47:48;;;;;;;7.72;6.60;;;17.70;99.90;;;;;;5067651;28;20124;-54
2023/06/24 00:50:15;;;;;;;8.55;7.45;;;17.80;99.90;;;;;;5073236;28;20406;-54
2023/06/24 00:52:42;;;;;;;9.48;7.03;;;17.80;99.90;;;;;;5067871;28;20055;-54
2023/06/24 00:55:13;;;;;;;8.70;7.03;;;17.80;99.90;;;;;;5065725;28;20020;-55
2023/06/24 00:57:44;;;;;;;9.02;7.25;;;17.60;99.90;;;;;;5064622;28;20031;-55
2023/06/24 01:00:17;;;;;;;8.65;6.88;;;17.60;99.90;;;;;;5064782;28;20028;-55
2023/06/24 01:02:43;;;;;;;9.30;6.88;;;17.70;99.90;;;;;;5064977;28;20033;-54
2023/06/24 01:05:11;;;;;;;7.20;6.45;;;17.80;99.90;;;;;;5066004;28;20055;-54
2023/06/24 01:07:38;;;;;;;7.85;6.85;;;17.80;99.90;;;;;;5061707;28;20174;-53
2023/06/24 01:10:07;;;;;;;8.27;6.72;;;17.80;99.90;;;;;;5063703;28;20381;-55
2023/06/24 01:12:39;;;;;;;9.90;6.60;;;17.80;99.90;;;;;;5063767;28;20475;-55
2023/06/24 01:15:07;;;;;;;8.95;8.05;;;17.70;99.90;;;;;;5066386;27;20448;-54
2023/06/24 01:18:02;;;;;;;10.93;7.50;;;17.90;99.90;;;;;;5061877;28;20079;-54
2023/06/24 01:20:50;;;;;;;8.07;7.28;;;17.90;99.90;;;;;;5062975;28;20120;-54
2023/06/24 01:23:36;;;;;;;12.38;8.27;;;17.90;99.90;;;;;;5058690;28;20043;-54
2023/06/24 01:26:02;;;;;;;9.18;7.82;;;17.80;99.90;;;;;;5066112;28;20225;-54
2023/06/24 01:28:53;;;;;;;11.05;9.35;;;17.70;99.90;;;;;;5063815;28;20476;-53
2023/06/24 01:31:27;;;;;;;9.95;8.88;;;17.80;99.90;;;;;;5060929;28;20041;-54
2023/06/24 01:34:17;;;;;;;9.88;8.70;;;17.80;99.90;;;;;;5063732;28;20496;-54
2023/06/24 01:36:49;;;;;;;10.73;8.75;;;17.80;99.90;;;;;;5065012;28;20048;-53
2023/06/24 01:39:18;;;;;;;11.32;8.88;;;17.80;99.90;;;;;;5064062;28;20055;-53
2023/06/24 01:41:55;;;;;;;12.43;8.45;;;17.80;99.90;;;;;;5059511;28;20033;-54
2023/06/24 01:44:21;;;;;;;9.75;8.40;;;17.80;99.90;;;;;;5064053;28;20052;-54
2023/06/24 01:46:50;;;;;;;11.75;8.63;;;17.80;99.90;;;;;;5062199;28;20484;-54
2023/06/24 01:49:17;;;;;;;9.45;8.35;;;17.80;99.90;;;;;;5069395;28;20159;-54
2023/06/24 01:51:46;;;;;;;9.80;8.30;;;17.90;99.90;;;;;;5056291;28;20074;-54
2023/06/24 01:54:15;;;;;;;11.05;9.10;;;17.90;99.90;;;;;;5064926;28;20091;-53
2023/06/24 01:56:43;;;;;;;10.35;8.93;;;17.80;99.90;;;;;;5065516;28;20036;-53
2023/06/24 01:59:11;;;;;;;10.48;9.45;;;17.80;99.90;;;;;;5062177;28;20033;-54
2023/06/24 02:01:38;;;;;;;11.27;9.18;;;17.80;99.90;;;;;;5062434;28;20066;-54
2023/06/24 02:04:08;;;;;;;11.80;9.27;;;17.80;99.90;;;;;;5063408;28;20690;-54
2023/06/24 02:06:35;;;;;;;12.40;10.13;;;17.90;99.90;;;;;;5069472;28;20024;-54
2023/06/24 02:09:03;;;;;;;13.93;10.52;;;17.80;99.90;;;;;;5063591;28;20032;-55
2023/06/24 02:11:31;;;;;;;11.68;10.48;;;17.70;99.90;;;;;;5067669;28;20082;-54
2023/06/24 02:13:58;;;;;;;15.20;10.02;;;17.70;99.90;;;;;;5066982;28;20044;-54
2023/06/24 02:16:26;;;;;;;16.60;11.10;;;17.70;99.90;;;;;;5063095;28;20052;-54
2023/06/24 02:18:54;;;;;;;13.30;10.57;;;17.70;99.90;;;;;;5064685;28;20518;-54
2023/06/24 02:21:21;;;;;;;13.23;11.10;;;17.90;99.90;;;;;;5060882;28;20048;-54
2023/06/24 02:23:48;;;;;;;12.38;10.73;;;17.90;99.90;;;;;;5067321;28;20439;-55
2023/06/24 02:26:15;;;;;;;14.75;11.20;;;17.70;99.90;;;;;;5063414;28;20558;-54
2023/06/24 02:28:41;;;;;;;12.77;10.50;;;17.60;99.90;;;;;;5068538;28;20032;-54
2023/06/24 02:31:09;;;;;;;14.55;10.43;;;17.60;99.90;;;;;;5060748;28;20032;-55
2023/06/24 02:33:35;;;;;;;12.13;10.80;;;17.60;99.90;;;;;;5068219;28;20044;-54
2023/06/24 02:36:00;;;;;;;13.45;11.07;;;17.60;99.90;;;;;;5065726;28;20488;-54
2023/06/24 02:38:26;;;;;;;13.30;11.05;;;17.60;99.90;;;;;;5063178;28;20384;-54
2023/06/24 02:40:52;;;;;;;14.38;10.73;;;17.60;99.90;;;;;;5067897;28;20053;-54
2023/06/24 02:43:17;;;;;;;15.57;11.00;;;17.60;99.90;;;;;;5061792;28;20796;-54
2023/06/24 02:45:45;;;;;;;13.93;10.88;;;17.60;99.90;;;;;;5066777;28;20121;-54
2023/06/24 02:48:12;;;;;;;13.20;11.15;;;17.60;99.90;;;;;;5059932;28;20028;-53
2023/06/24 02:50:40;;;;;;;15.15;10.93;;;17.60;99.90;;;;;;5063214;28;20032;-54
2023/06/24 02:53:07;;;;;;;13.35;10.98;;;17.50;99.90;;;;;;5064105;28;20025;-52
2023/06/24 02:55:34;;;;;;;14.73;11.13;;;17.60;99.90;;;;;;5065102;28;20036;-55
2023/06/24 02:58:02;;;;;;;14.93;11.25;;;17.50;99.90;;;;;;5068588;28;20492;-54
2023/06/24 03:00:31;;;;;;;14.60;11.63;;;17.50;99.90;;;;;;5060362;28;20075;-54
2023/06/24 03:02:56;;;;;;;16.80;12.40;;;17.40;99.90;;;;;;5066266;28;20040;-54
2023/06/24 03:05:25;;;;;;;15.18;11.95;;;17.50;99.90;;;;;;5064189;28;20039;-54
2023/06/24 03:07:51;;;;;;;14.02;11.65;;;17.50;99.90;;;;;;5066520;28;20057;-54
2023/06/24 03:10:16;;;;;;;16.08;12.30;;;17.50;99.90;;;;;;5059516;28;20065;-54
2023/06/24 03:12:42;;;;;;;15.13;11.77;;;17.40;99.90;;;;;;5070290;28;20035;-54
2023/06/24 03:15:09;;;;;;;16.98;11.98;;;17.40;99.90;;;;;;5063889;28;20366;-54
2023/06/24 03:17:35;;;;;;;15.63;11.95;;;17.50;99.90;;;;;;5066893;28;20230;-57
2023/06/24 03:20:00;;;;;;;12.88;11.55;;;17.50;99.90;;;;;;5059096;28;20437;-54
2023/06/24 03:22:26;;;;;;;16.08;12.18;;;17.50;99.90;;;;;;5061413;28;20036;-53
2023/06/24 03:24:52;;;;;;;15.65;12.50;;;17.40;99.90;;;;;;5067498;28;20032;-54
2023/06/24 03:27:18;;;;;;;16.55;12.20;;;17.40;99.90;;;;;;5067978;28;20036;-54
2023/06/24 03:29:44;;;;;;;17.02;12.43;;;17.30;99.90;;;;;;5070706;28;20040;-54
2023/06/24 03:32:10;;;;;;;16.38;12.27;;;17.60;99.90;;;;;;5063420;28;20051;-54
2023/06/24 03:34:35;;;;;;;15.93;11.43;;;17.50;99.90;;;;;;5066333;28;20044;-54
2023/06/24 03:37:01;;;;;;;17.08;12.40;;;17.40;99.90;;;;;;5071686;28;20115;-54
2023/06/24 03:39:26;;;;;;;17.05;12.68;;;17.50;99.90;;;;;;5068562;28;20112;-54
2023/06/24 03:41:52;;;;;;;15.70;11.68;;;17.40;99.90;;;;;;5059205;28;20103;-54
2023/06/24 03:44:17;;;;;;;16.05;12.40;;;17.40;99.90;;;;;;5068567;28;20036;-54
2023/06/24 03:46:43;;;;;;;15.82;12.93;;;17.50;99.90;;;;;;5066043;28;20272;-54
2023/06/24 03:49:09;;;;;;;16.42;12.88;;;17.50;99.90;;;;;;5068560;28;20521;-54
2023/06/24 03:51:34;;;;;;;16.38;12.80;;;17.50;99.90;;;;;;5068357;28;20051;-54
2023/06/24 03:54:00;;;;;;;16.27;12.82;;;17.40;99.90;;;;;;5065765;28;20056;-54
2023/06/24 03:56:25;;;;;;;16.55;13.57;;;17.50;99.90;;;;;;5072665;28;20036;-55
2023/06/24 03:58:51;;;;;;;16.90;13.23;;;17.40;99.90;;;;;;5072802;28;20040;-53
2023/06/24 04:01:19;;;;;;;18.92;13.77;;;17.40;99.90;;;;;;5073306;28;20064;-55
2023/06/24 04:03:46;;;;;;;15.13;13.45;;;17.40;99.90;;;;;;5060535;28;20552;-53
2023/06/24 04:06:11;;;;;;;15.27;12.63;;;17.30;99.90;;;;;;5066854;28;20036;-54
2023/06/24 04:08:39;;;;;;;17.60;13.57;;;17.50;99.90;;;;;;5070951;28;20051;-53
2023/06/24 04:11:06;;;;;;;16.42;13.18;;;17.40;99.90;;;;;;5068301;28;20500;-54
2023/06/24 04:13:32;;;;;;;18.05;12.93;;;17.50;99.90;;;;;;5073335;28;20036;-54
2023/06/24 04:15:58;;;;;;;17.13;13.45;;;17.50;99.90;;;;;;5067128;28;20040;-54
2023/06/24 04:18:24;;;;;;;18.05;13.77;;;17.50;99.90;;;;;;5069943;28;20029;-53
2023/06/24 04:20:49;;;;;;;16.50;13.13;;;17.50;99.90;;;;;;5062741;28;20138;-53
2023/06/24 04:23:15;;;;;;;18.40;13.50;;;17.50;99.90;;;;;;5070997;28;20054;-55
2023/06/24 04:25:42;;;;;;;17.50;13.63;;;17.60;99.90;;;;;;5073557;28;20483;-54
2023/06/24 04:28:08;;;;;;;18.73;13.85;;;17.60;99.90;;;;;;5060524;28;20024;-55
2023/06/24 04:30:38;;;;;;;16.25;13.07;;;17.70;99.90;;;;;;5070051;28;20032;-54
2023/06/24 04:33:04;;;;;;;17.40;13.80;;;17.60;99.90;;;;;;5068374;28;20098;-54
2023/06/24 04:35:30;;;;;;;18.85;13.20;;;17.60;99.90;;;;;;5069866;28;20037;-54
2023/06/24 04:37:56;;;;;;;17.80;13.98;;;17.70;99.90;;;;;;5061213;28;20104;-54
2023/06/24 04:40:21;;;;;;;19.40;15.05;;;17.80;99.90;;;;;;5064438;28;20119;-54
2023/06/24 04:42:47;;;;;;;16.05;13.30;;;17.80;99.90;;;;;;5066762;28;20056;-55
2023/06/24 04:45:13;;;;;;;20.20;13.93;;;17.90;99.90;;;;;;5064916;28;20043;-55
2023/06/24 04:47:39;;;;;;;18.27;14.07;;;18.00;99.90;;;;;;5063938;28;20045;-55
2023/06/24 04:50:05;;;;;;;20.95;14.38;;;18.10;99.90;;;;;;5065276;28;20112;-55
2023/06/24 04:52:31;;;;;;;18.58;14.88;;;18.20;99.90;;;;;;5065595;28;20040;-55
2023/06/24 04:54:56;;;;;;;18.70;14.25;;;18.20;99.90;;;;;;5065394;28;20032;-55
2023/06/24 04:57:28;;;;;;;19.30;14.18;;;18.40;99.90;;;;;;5064038;28;20037;-55
2023/06/24 04:59:53;;;;;;;19.10;14.35;;;18.60;99.90;;;;;;5060633;28;20043;-55
2023/06/24 05:02:19;;;;;;;17.38;15.32;;;18.60;99.90;;;;;;5066489;28;20495;-55
2023/06/24 05:04:44;;;;;;;18.73;13.93;;;18.30;99.90;;;;;;5066976;28;20040;-55
2023/06/24 05:07:10;;;;;;;16.40;14.20;;;18.60;99.90;;;;;;5065227;28;20033;-55
2023/06/24 05:09:38;;;;;;;20.20;13.98;;;18.50;99.90;;;;;;5065752;28;20075;-55
2023/06/24 05:12:07;;;;;;;21.33;14.35;;;18.80;99.90;;;;;;5061973;28;20472;-55
2023/06/24 05:14:36;;;;;;;22.92;14.00;;;18.90;99.90;;;;;;5066747;28;20089;-55
2023/06/24 05:17:03;;;;;;;22.00;14.68;;;18.80;99.90;;;;;;5066786;28;20040;-55
2023/06/24 05:19:28;;;;;;;21.65;14.88;;;18.80;99.90;;;;;;5063416;28;20068;-55
2023/06/24 05:21:54;;;;;;;19.63;14.15;;;18.80;99.90;;;;;;5066718;28;20063;-55
2023/06/24 05:24:20;;;;;;;20.02;14.07;;;18.90;99.90;;;;;;5065097;28;20617;-55
2023/06/24 05:26:49;;;;;;;21.25;15.02;;;19.00;99.90;;;;;;5062653;28;20033;-55
2023/06/24 05:29:15;;;;;;;20.48;15.13;;;19.10;99.90;;;;;;5063867;28;20493;-55
2023/06/24 05:31:41;;;;;;;19.85;13.93;;;19.10;99.90;;;;;;5067612;28;20064;-55
2023/06/24 05:34:07;;;;;;;24.85;14.90;;;19.30;99.90;;;;;;5065317;28;20156;-59
2023/06/24 05:36:33;;;;;;;19.67;14.57;;;19.30;99.90;;;;;;5069655;28;20123;-62
2023/06/24 05:38:59;;;;;;;19.10;14.63;;;19.30;99.90;;;;;;5057419;28;20486;-62
2023/06/24 05:41:24;;;;;;;24.92;15.32;;;19.40;99.90;;;;;;5063221;28;20062;-61
2023/06/24 05:44:02;;;;;;;21.98;14.85;;;19.50;99.90;;;;;;5063593;28;20032;-62
2023/06/24 05:46:28;;;;;;;23.17;15.63;;;19.50;99.90;;;;;;5065630;28;20119;-62
2023/06/24 05:48:53;;;;;;;21.42;14.77;;;19.60;99.90;;;;;;5062429;28;20137;-62
2023/06/24 05:51:19;;;;;;;20.13;16.33;;;19.80;99.90;;;;;;5062617;28;20024;-61
2023/06/24 05:53:44;;;;;;;23.33;18.30;;;20.00;99.90;;;;;;5065478;28;20032;-62
2023/06/24 05:56:10;;;;;;;24.00;17.80;;;20.20;99.90;;;;;;5060766;28;20033;-61
2023/06/24 05:58:35;;;;;;;24.25;18.15;;;20.30;99.90;;;;;;5065431;28;20039;-62
2023/06/24 06:01:01;;;;;;;24.52;18.50;;;20.10;99.90;;;;;;5066672;28;20029;-62
2023/06/24 06:03:27;;;;;;;22.92;18.52;;;20.20;99.90;;;;;;5068080;28;20040;-61
2023/06/24 06:05:52;;;;;;;24.50;18.98;;;20.20;99.90;;;;;;5067586;28;20024;-62
2023/06/24 06:08:18;;;;;;;24.95;17.80;;;20.40;99.90;;;;;;5063754;28;20446;-62
2023/06/24 06:10:43;;;;;;;26.02;19.60;;;20.30;99.90;;;;;;5064646;28;20467;-62
2023/06/24 06:13:09;;;;;;;22.95;17.63;;;20.30;99.90;;;;;;5064580;28;20077;-61
2023/06/24 06:15:34;;;;;;;26.13;19.63;;;20.50;99.90;;;;;;5069353;28;20254;-61
2023/06/24 06:18:00;;;;;;;23.75;20.15;;;20.70;99.90;;;;;;5061589;28;20044;-62
2023/06/24 06:20:25;;;;;;;24.75;21.10;;;20.70;99.90;;;;;;5060907;28;20060;-62
2023/06/24 06:22:51;;;;;;;25.17;21.10;;;20.90;99.90;;;;;;5065441;28;20036;-62
2023/06/24 06:25:17;;;;;;;25.30;21.60;;;21.00;99.90;;;;;;5060337;28;20033;-61
2023/06/24 06:27:42;;;;;;;29.25;21.75;;;21.10;99.90;;;;;;5059743;28;20143;-63
2023/06/24 06:30:08;;;;;;;26.00;19.02;;;21.10;99.90;;;;;;5063526;28;20515;-61
2023/06/24 06:32:34;;;;;;;24.88;18.42;;;21.00;99.90;;;;;;5063219;28;20388;-63
2023/06/24 06:34:59;;;;;;;20.85;17.67;;;20.90;99.90;;;;;;5062403;28;20024;-62
2023/06/24 06:37:25;;;;;;;21.48;16.92;;;21.10;99.90;;;;;;5065965;28;20434;-63
2023/06/24 06:39:50;;;;;;;20.00;16.48;;;21.10;99.90;;;;;;5065263;28;20036;-62
2023/06/24 06:42:16;;;;;;;18.92;16.02;;;21.10;99.90;;;;;;5058893;28;20045;-62
2023/06/24 06:44:41;;;;;;;22.05;15.32;;;21.20;99.90;;;;;;5061282;28;20045;-62
2023/06/24 06:47:07;;;;;;;16.92;14.50;;;21.20;99.90;;;;;;5067186;28;20029;-61
2023/06/24 06:49:33;;;;;;;22.75;14.93;;;21.20;99.90;;;;;;5060825;28;20032;-62
2023/06/24 06:51:58;;;;;;;21.42;14.43;;;21.30;99.90;;;;;;5061442;28;20028;-62
2023/06/24 06:54:24;;;;;;;15.93;13.77;;;21.30;99.90;;;;;;5061057;28;20048;-62
2023/06/24 06:56:49;;;;;;;16.95;13.40;;;21.40;99.90;;;;;;5067593;28;20504;-62
2023/06/24 06:59:15;;;;;;;18.70;14.05;;;21.50;99.90;;;;;;5068468;28;20083;-61
2023/06/24 07:01:40;;;;;;;16.42;12.68;;;21.60;99.90;;;;;;5068858;28;20039;-62
2023/06/24 07:04:06;;;;;;;14.15;12.65;;;21.50;99.90;;;;;;5068746;28;20044;-61
2023/06/24 07:06:32;;;;;;;17.50;12.93;;;21.60;99.90;;;;;;5062872;28;20033;-62
2023/06/24 07:08:58;;;;;;;13.75;12.25;;;21.70;99.90;;;;;;5070850;28;20391;-63
2023/06/24 07:11:24;;;;;;;15.45;13.00;;;21.60;99.90;;;;;;5062917;28;20055;-63
2023/06/24 07:13:51;;;;;;;17.50;12.93;;;21.80;99.90;;;;;;5065659;28;20510;-62
2023/06/24 07:16:17;;;;;;;13.35;11.85;;;21.80;99.90;;;;;;5069103;28;20040;-63
2023/06/24 07:18:42;;;;;;;17.85;12.80;;;21.90;99.90;;;;;;5063721;28;20033;-62
2023/06/24 07:21:08;;;;;;;14.10;11.32;;;21.80;99.90;;;;;;5060450;28;20029;-61
2023/06/24 07:23:33;;;;;;;11.45;9.70;;;21.70;99.90;;;;;;5072334;28;20551;-62
2023/06/24 07:25:59;;;;;;;15.07;11.48;;;22.00;99.90;;;;;;5066647;28;20095;-62
2023/06/24 07:28:24;;;;;;;11.85;10.18;;;22.10;99.90;;;;;;5072389;28;20060;-62
2023/06/24 07:30:50;;;;;;;12.77;9.40;;;22.20;99.90;;;;;;5073106;28;20043;-62
2023/06/24 07:33:16;;;;;;;10.30;7.97;;;22.10;99.90;;;;;;5074753;28;20040;-62
2023/06/24 07:35:41;;;;;;;11.68;8.43;;;22.10;99.90;;;;;;5064865;28;20396;-62
2023/06/24 07:38:07;;;;;;;9.23;7.30;;;21.40;99.90;;;;;;5069492;28;20028;-61
2023/06/24 07:40:33;;;;;;;14.10;8.05;;;22.40;99.90;;;;;;5067199;28;20036;-62
2023/06/24 07:42:58;;;;;;;9.27;7.07;;;22.30;99.90;;;;;;5061949;28;20075;-62
2023/06/24 07:45:25;;;;;;;11.05;8.05;;;22.30;99.90;;;;;;5069508;28;20435;-62
2023/06/24 07:47:51;;;;;;;8.82;7.05;;;22.40;99.90;;;;;;5067295;28;20048;-62
2023/06/24 07:50:16;;;;;;;9.52;6.18;;;22.60;99.90;;;;;;5061531;28;20119;-62
2023/06/24 07:52:42;;;;;;;7.45;5.93;;;22.50;99.90;;;;;;5061033;28;20037;-62
2023/06/24 07:55:08;;;;;;;9.10;5.32;;;22.60;99.90;;;;;;5067383;28;20146;-61
2023/06/24 07:57:33;;;;;;;10.55;6.40;;;22.70;99.90;;;;;;5067368;28;20037;-61
2023/06/24 07:59:59;;;;;;;8.07;5.10;;;22.70;99.90;;;;;;5066943;28;20039;-61
2023/06/24 08:02:24;;;;;;;11.82;5.80;;;22.70;99.90;;;;;;5064595;28;20086;-61
2023/06/24 08:04:50;;;;;;;7.13;4.93;;;22.70;99.90;;;;;;5057737;28;20132;-61
2023/06/24 08:07:16;;;;;;;7.95;5.65;;;22.70;99.90;;;;;;5065595;28;20067;-55
2023/06/24 08:09:42;;;;;;;8.48;5.70;;;22.90;99.90;;;;;;5063175;28;20068;-61
2023/06/24 08:12:08;;;;;;;6.75;5.03;;;23.00;99.90;;;;;;5066469;28;20039;-55
2023/06/24 08:14:33;;;;;;;6.38;4.75;;;23.00;99.90;;;;;;5067956;28;20029;-55
2023/06/24 08:16:59;;;;;;;7.03;5.07;;;23.10;99.90;;;;;;5066369;28;20032;-55
2023/06/24 08:19:25;;;;;;;10.45;6.57;;;23.20;99.90;;;;;;5067289;28;20548;-55
2023/06/24 08:21:50;;;;;;;8.63;5.95;;;23.30;99.90;;;;;;5064959;28;20369;-55
2023/06/24 08:24:16;;;;;;;9.52;6.20;;;23.20;99.90;;;;;;5067182;28;20059;-55
2023/06/24 08:26:41;;;;;;;8.45;6.00;;;23.20;99.90;;;;;;5064690;28;20079;-55
2023/06/24 08:29:07;;;;;;;9.93;7.03;;;23.20;99.90;;;;;;5063353;28;20686;-55
2023/06/24 08:31:33;;;;;;;13.77;7.25;;;23.20;99.90;;;;;;5062938;28;20365;-55
2023/06/24 08:34:02;;;;;;;10.13;5.95;;;23.10;99.90;;;;;;5055330;28;20041;-55
2023/06/24 08:36:31;;;;;;;9.18;6.55;;;23.30;99.90;;;;;;5063882;28;20051;-54
2023/06/24 08:38:57;;;;;;;12.05;6.68;;;23.50;99.90;;;;;;5067820;28;20707;-55
2023/06/24 08:41:27;;;;;;;11.60;7.45;;;23.60;99.90;;;;;;5065041;28;20032;-61
2023/06/24 08:43:56;;;;;;;12.18;7.85;;;23.70;99.90;;;;;;5059372;28;20032;-61
2023/06/24 08:46:24;;;;;;;13.82;9.23;;;23.60;99.90;;;;;;5062975;28;20036;-61
2023/06/24 08:49:09;;;;;;;11.68;8.30;;;23.50;99.90;;;;;;5063066;28;20463;-61
2023/06/24 08:51:40;;;;;;;18.77;11.20;;;23.60;99.90;;;;;;5061042;28;20775;-61
2023/06/24 08:54:09;;;;;;;13.68;10.43;;;23.70;99.90;;;;;;5064554;28;20501;-62
2023/06/24 08:56:34;;;;;;;14.75;9.75;;;23.70;99.90;;;;;;5070167;28;20049;-61
2023/06/24 08:59:00;;;;;;;15.25;10.68;;;23.80;99.90;;;;;;5065969;28;20103;-62
2023/06/24 09:01:27;;;;;;;16.10;10.43;;;23.70;99.90;;;;;;5070369;28;20041;-61
2023/06/24 09:03:52;;;;;;;16.88;9.95;;;23.90;99.90;;;;;;5067646;28;20028;-62
2023/06/24 09:06:18;;;;;;;16.42;10.30;;;24.00;99.90;;;;;;5065139;28;20403;-61
2023/06/24 09:08:56;;;;;;;15.50;9.75;;;24.10;99.90;;;;;;5069477;28;20024;-62
2023/06/24 09:11:27;;;;;;;14.55;8.50;;;24.00;99.90;;;;;;5069548;28;20048;-61
2023/06/24 09:13:59;;;;;;;10.80;7.95;;;24.10;99.90;;;;;;5068779;28;20041;-61
2023/06/24 09:16:25;;;;;;;12.25;7.90;;;24.10;99.90;;;;;;5065280;28;20036;-62
2023/06/24 09:18:53;;;;;;;12.32;7.80;;;24.20;99.90;;;;;;5067443;28;20488;-62
2023/06/24 09:21:23;;;;;;;11.60;7.20;;;24.20;99.90;;;;;;5071142;28;20416;-61
2023/06/24 09:23:52;;;;;;;10.63;6.93;;;24.20;99.90;;;;;;5070970;28;20032;-62
2023/06/24 09:26:17;;;;;;;10.05;6.78;;;24.20;99.90;;;;;;5065329;28;20040;-62
2023/06/24 09:28:49;;;;;;;9.95;6.72;;;24.40;99.90;;;;;;5067667;28;20217;-62
2023/06/24 09:31:14;;;;;;;10.07;6.32;;;24.40;99.90;;;;;;5063854;28;20416;-61
2023/06/24 09:33:40;;;;;;;23.05;19.50;;;24.50;99.90;;;;;;5075493;28;20044;-61
2023/06/24 09:36:06;;;;;;;9.90;7.78;;;24.60;99.90;;;;;;5068160;28;20094;-61
2023/06/24 09:38:36;;;;;;;9.38;6.03;;;24.50;99.90;;;;;;5067491;28;20021;-61
2023/06/24 09:41:04;;;;;;;7.05;5.10;;;24.80;99.90;;;;;;5066587;28;20033;-60
2023/06/24 09:43:30;;;;;;;8.05;5.72;;;24.80;99.90;;;;;;5065191;28;20435;-61
2023/06/24 09:45:56;;;;;;;7.95;4.78;;;24.80;99.90;;;;;;5070698;28;20032;-61
2023/06/24 09:48:22;;;;;;;8.25;5.28;;;24.90;99.90;;;;;;5059409;28;20036;-62
2023/06/24 09:50:48;;;;;;;7.55;4.97;;;24.90;99.90;;;;;;5065703;28;20082;-62
2023/06/24 09:53:15;;;;;;;6.63;4.28;;;24.80;99.90;;;;;;5064888;28;20036;-62
2023/06/24 09:55:43;;;;;;;6.72;4.95;;;24.70;99.90;;;;;;5070425;28;20120;-63
2023/06/24 09:58:10;;;;;;;10.63;6.03;;;24.70;99.90;;;;;;5060897;28;20028;-61
2023/06/24 10:00:36;;;;;;;6.90;4.65;;;24.70;99.90;;;;;;5064326;28;20029;-62
2023/06/24 10:03:03;;;;;;;8.10;5.40;;;24.80;99.90;;;;;;5070535;28;20133;-61
2023/06/24 10:05:29;;;;;;;6.15;4.32;;;25.00;99.90;;;;;;5069284;28;20035;-62
2023/06/24 10:07:54;;;;;;;9.07;4.82;;;25.00;99.90;;;;;;5066157;28;20103;-62
2023/06/24 10:10:20;;;;;;;8.07;4.18;;;25.20;99.90;;;;;;5066530;28;20036;-62
2023/06/24 10:12:45;;;;;;;6.22;4.25;;;25.40;99.90;;;;;;5065348;28;20074;-62
2023/06/24 10:15:12;;;;;;;4.90;3.85;;;25.40;99.90;;;;;;5065019;28;20139;-61
2023/06/24 10:17:37;;;;;;;5.80;3.60;;;25.30;99.90;;;;;;5058292;28;20029;-61
2023/06/24 10:20:07;;;;;;;5.60;3.70;;;25.20;99.90;;;;;;5063172;28;20032;-60
2023/06/24 10:22:32;;;;;;;6.00;3.90;;;25.20;99.90;;;;;;5070257;28;20120;-61
2023/06/24 10:25:04;;;;;;;6.07;4.50;;;25.30;99.90;;;;;;5065961;28;20829;-61
2023/06/24 10:27:38;;;;;;;9.25;5.00;;;25.30;99.90;;;;;;5064090;28;20041;-61
2023/06/24 10:30:05;;;;;;;7.60;4.35;;;25.40;99.90;;;;;;5064637;28;20063;-62
2023/06/24 10:32:41;;;;;;;6.78;3.90;;;25.30;99.90;;;;;;5059047;28;20071;-61
2023/06/24 10:35:07;;;;;;;6.25;4.25;;;25.40;99.90;;;;;;5062005;28;20054;-62
2023/06/24 10:37:33;;;;;;;10.07;4.75;;;25.50;99.90;;;;;;5068841;28;20481;-61
2023/06/24 10:40:00;;;;;;;6.22;4.43;;;25.60;99.90;;;;;;5069987;28;20104;-61
2023/06/24 10:42:41;;;;;;;8.10;4.88;;;25.70;99.90;;;;;;5068591;28;20047;-61
2023/06/24 10:45:13;;;;;;;5.40;4.47;;;25.80;99.90;;;;;;5067999;28;20033;-61
2023/06/24 10:47:44;;;;;;;5.93;3.83;;;;;;;;;;5070259;28;20032;-61
2023/06/24 10:50:12;;;;;;;4.40;3.63;;;26.10;99.90;;;;;;5059547;28;20033;-62
2023/06/24 10:52:39;;;;;;;7.57;3.80;;;26.10;99.90;;;;;;5068120;28;20029;-61
2023/06/24 10:55:07;;;;;;;8.93;4.15;;;25.80;99.90;;;;;;5068845;28;20115;-61
2023/06/24 10:57:32;;;;;;;6.53;4.15;;;25.80;99.90;;;;;;5069985;28;20036;-61
2023/06/24 10:59:58;;;;;;;5.22;4.13;;;25.80;99.90;;;;;;5068171;28;20037;-61
2023/06/24 11:02:25;;;;;;;6.65;3.85;;;25.90;99.90;;;;;;5076180;28;20028;-61
2023/06/24 11:04:53;;;;;;;6.15;3.90;;;25.90;99.90;;;;;;5066486;28;20028;-61
2023/06/24 11:07:20;;;;;;;5.82;3.78;;;25.80;99.90;;;;;;5059666;28;20067;-61
2023/06/24 11:10:05;;;;;;;5.35;3.53;;;25.90;99.90;;;;;;5068189;28;20120;-61
2023/06/24 11:12:33;;;;;;;5.38;3.88;;;26.00;99.90;;;;;;5073913;28;20063;-61
2023/06/24 11:15:09;;;;;;;6.32;3.75;;;26.10;99.90;;;;;;5075190;28;20033;-61
2023/06/24 11:17:36;;;;;;;5.70;3.80;;;26.00;99.90;;;;;;5067279;28;20043;-60
2023/06/24 11:20:06;;;;;;;4.90;3.45;;;26.00;99.90;;;;;;5066319;28;20458;-59
2023/06/24 11:22:32;;;;;;;6.95;3.55;;;26.00;99.90;;;;;;5068239;28;20059;-60
2023/06/24 11:24:57;;;;;;;4.57;3.08;;;26.10;99.90;;;;;;5066243;28;20858;-61
2023/06/24 11:27:29;;;;;;;5.45;3.50;;;26.20;99.90;;;;;;5065181;28;20119;-62
2023/06/24 11:29:58;;;;;;;5.05;2.88;;;26.20;99.90;;;;;;5066259;28;20396;-61
2023/06/24 11:32:24;;;;;;;4.93;3.03;;;26.30;99.90;;;;;;5066776;28;20036;-61
2023/06/24 11:34:50;;;;;;;5.70;3.30;;;26.30;99.90;;;;;;5068235;28;20049;-61
2023/06/24 11:37:18;;;;;;;5.28;2.95;;;26.30;99.90;;;;;;5065042;28;20032;-61
2023/06/24 11:39:44;;;;;;;4.13;2.80;;;26.30;98.80;;;;;;5067579;28;20043;-62
2023/06/24 11:42:10;;;;;;;5.78;2.83;;;26.30;99.40;;;;;;5062004;28;21165;-61
2023/06/24 11:44:43;;;;;;;3.70;2.58;;;26.30;96.80;;;;;;5067760;28;20131;-62
2023/06/24 11:47:10;;;;;;;3.90;2.90;;;26.20;94.70;;;;;;5063223;28;20090;-62
2023/06/24 11:49:52;;;;;;;4.72;2.88;;;26.20;98.40;;;;;;5068817;28;20068;-62
2023/06/24 11:52:19;;;;;;;5.78;2.72;;;26.20;96.60;;;;;;5065386;28;20043;-62
2023/06/24 11:54:45;;;;;;;4.38;2.92;;;26.20;99.60;;;;;;5065438;28;20032;-62
2023/06/24 11:57:12;;;;;;;3.05;2.25;;;26.30;91.00;;;;;;5060390;27;20141;-61
2023/06/24 11:59:51;;;;;;;2.80;2.30;;;26.20;90.60;;;;;;5065661;28;20032;-62
2023/06/24 12:02:16;;;;;;;3.90;2.50;;;26.00;91.30;;;;;;5062238;28;20040;-62
2023/06/24 12:04:43;;;;;;;3.85;2.38;;;26.20;97.60;;;;;;5065200;28;20091;-62
2023/06/24 12:07:09;;;;;;;3.30;2.67;;;26.40;99.10;;;;;;5065035;28;20159;-61
2023/06/24 12:09:38;;;;;;;3.00;2.10;;;26.50;92.30;;;;;;5070929;28;20029;-62
2023/06/24 12:12:04;;;;;;;2.90;2.20;;;26.40;80.00;;;;;;5063464;28;20035;-61
2023/06/24 12:14:29;;;;;;;3.30;2.42;;;26.30;90.20;;;;;;5068709;28;20497;-62
2023/06/24 12:16:55;;;;;;;4.07;2.50;;;26.30;90.60;;;;;;5068533;28;20121;-62
2023/06/24 12:19:21;;;;;;;4.00;2.58;;;26.50;95.80;;;;;;5069244;28;21671;-62
2023/06/24 12:21:47;;;;;;;4.25;2.50;;;26.60;95.00;;;;;;5065492;28;20035;-56
2023/06/24 12:24:13;;;;;;;3.10;2.63;;;26.70;96.90;;;;;;5059421;28;20036;-56
2023/06/24 12:26:38;;;;;;;5.95;2.72;;;26.60;94.40;;;;;;5064248;28;20618;-57
2023/06/24 12:29:04;;;;;;;2.95;2.42;;;26.60;94.90;;;;;;5062202;28;20528;-56
2023/06/24 12:31:30;;;;;;;5.35;2.88;;;26.60;93.50;;;;;;5060590;28;20101;-56
2023/06/24 12:33:55;;;;;;;4.10;2.80;;;26.50;92.30;;;;;;5059447;28;20033;-56
2023/06/24 12:36:22;;;;;;;3.95;2.80;;;26.60;98.30;;;;;;5064810;28;20065;-56